createdAt,value
2023-02-04T07:30:24.662Z,83.84
2023-02-04T07:32:26.188Z,83.63
2023-02-04T07:34:27.217Z,84.01
2023-02-04T07:36:28.692Z,84.02
2023-02-04T08:00:14.082Z,82.54
2023-02-04T08:02:15.471Z,82.54
2023-02-04T08:04:17.083Z,82.92
2023-02-04T08:06:18.985Z,82.84
2023-02-04T08:08:20.851Z,82.41
2023-02-04T08:10:21.919Z,81.64
2023-02-04T08:12:23.856Z,82.24
2023-02-04T08:14:25.509Z,81.95
2023-02-04T08:16:27.002Z,81.94
2023-02-04T08:18:28.299Z,81.87
2023-02-04T08:20:29.869Z,81.95
2023-02-04T08:22:31.062Z,82.35
2023-02-04T08:24:32.159Z,81.22
2023-02-04T08:28:35.075Z,81.49
2023-02-04T08:30:36.854Z,82.02
2023-02-04T08:32:38.609Z,81.99
2023-02-04T08:34:39.618Z,80.94
2023-02-04T08:36:41.559Z,83.04
2023-02-04T08:38:42.841Z,81.89
2023-02-04T08:40:44.775Z,82.22
2023-02-04T08:42:46.662Z,81.17
2023-02-04T08:44:48.045Z,81.01
2023-02-04T08:46:49.639Z,81.11
2023-02-04T08:48:50.982Z,81.64
2023-02-04T08:50:52.626Z,82.43
2023-02-04T08:52:54.291Z,81.5
2023-02-04T08:54:55.835Z,81.49
2023-02-04T08:56:57.151Z,81.94
2023-02-04T08:58:58.474Z,81.82
2023-02-04T09:00:59.834Z,82.25
2023-02-04T09:03:01.108Z,83.16
2023-02-04T09:05:02.246Z,82.08
2023-02-04T09:07:03.842Z,83.1
2023-02-04T09:11:07.321Z,82.22
2023-02-04T09:13:09.245Z,83.39
2023-02-04T09:15:10.856Z,84.24
2023-02-04T09:17:12.323Z,83.61
2023-02-04T09:19:13.776Z,83.28
2023-02-04T09:21:14.872Z,83.75
2023-02-04T09:23:16.079Z,84.14
2023-02-04T09:25:17.927Z,85.16
2023-02-04T09:27:19.824Z,86.08
2023-02-04T09:29:21.638Z,86.46
2023-02-04T09:31:22.930Z,87.22
2023-02-04T09:33:24.428Z,88.08
2023-02-04T09:35:26.235Z,87.66
2023-02-04T09:37:28.061Z,88.31
2023-02-04T09:39:29.992Z,87.77
2023-02-04T09:41:31.028Z,87.47
2023-02-04T09:43:32.808Z,89.27
2023-02-04T09:45:34.020Z,88.75
2023-02-04T09:47:35.188Z,88.12
2023-02-04T09:49:36.435Z,88.72
2023-02-04T09:53:39.867Z,89.77
2023-02-04T09:55:41.478Z,90.53
2023-02-04T09:57:42.598Z,90.46
2023-02-04T09:59:44.544Z,90.45
2023-02-04T10:01:45.834Z,90.45
2023-02-04T10:03:47.216Z,90.39
2023-02-04T10:05:48.286Z,89.33
2023-02-04T10:07:57.444Z,90.29
2023-02-04T10:09:50.828Z,90.51
2023-02-04T10:11:51.835Z,90.99
2023-02-04T10:13:53.081Z,90.9
2023-02-04T10:15:54.970Z,90.68
2023-02-04T10:18:04.725Z,89.79
2023-02-04T10:19:58.293Z,89.61
2023-02-04T10:22:08.305Z,89.91
2023-02-04T10:26:02.798Z,89.2
2023-02-04T10:28:04.477Z,85.81
2023-02-04T10:30:06.013Z,84.5
2023-02-04T10:32:07.297Z,85.52
2023-02-04T10:36:10.224Z,84.56
2023-02-04T10:38:11.888Z,84.6
2023-02-04T10:40:12.971Z,83.7
2023-02-04T10:42:14.803Z,85.34
2023-02-04T10:44:15.839Z,83.55
2023-02-04T10:46:17.286Z,82.62
2023-02-04T10:48:18.224Z,81.84
2023-02-04T10:50:19.315Z,82.94
2023-02-04T10:52:20.976Z,81.65
2023-02-04T10:54:22.056Z,84.05
2023-02-04T10:56:32.076Z,80.59
2023-02-04T10:58:24.360Z,80.49
2023-02-04T11:00:25.415Z,82.54
2023-02-04T11:02:26.704Z,80
2023-02-04T11:04:28.604Z,79.93
2023-02-04T11:06:29.832Z,78.26
2023-02-04T11:08:31.195Z,78.81
2023-02-04T11:10:33.365Z,79.86
2023-02-04T11:12:34.751Z,81.52
2023-02-04T11:14:36.540Z,82.49
2023-02-04T11:16:37.847Z,81.7
2023-02-04T11:18:38.915Z,83.45
2023-02-04T11:20:40.365Z,82.75
2023-02-04T11:22:41.596Z,82.29
2023-02-04T11:24:42.666Z,80.27
2023-02-04T11:26:44.272Z,80.52
2023-02-04T11:28:46.201Z,81.16
2023-02-04T11:30:47.877Z,79.61
2023-02-04T11:34:51.405Z,83.23
2023-02-04T11:36:52.324Z,80.32
2023-02-04T11:38:53.893Z,81.27
2023-02-04T11:40:54.893Z,80.27
2023-02-04T11:42:56.682Z,80.13
2023-02-04T11:44:57.924Z,80.8
2023-02-04T11:46:59.484Z,79.99
2023-02-04T11:49:01.387Z,80.13
2023-02-04T11:51:02.395Z,79.65
2023-02-04T11:53:03.592Z,78.78
2023-02-04T11:55:04.816Z,77.01
2023-02-04T11:57:06.633Z,77.81
2023-02-04T11:59:07.755Z,76.92
2023-02-04T12:01:09.124Z,76.98
2023-02-04T12:03:10.947Z,76.33
2023-02-04T12:05:12.640Z,77.63
2023-02-04T12:07:13.754Z,75.49
2023-02-04T12:09:15.363Z,75.3
2023-02-04T12:11:16.606Z,75.57
2023-02-04T12:13:18.026Z,74.67
2023-02-04T12:17:21.233Z,74
2023-02-04T12:19:22.617Z,75.12
2023-02-04T12:21:23.605Z,74.78
2023-02-04T12:23:25.312Z,73.27
2023-02-04T12:25:27.059Z,74.36
2023-02-04T12:27:28.855Z,74.47
2023-02-04T12:29:30.211Z,74.1
2023-02-04T12:31:31.447Z,73.01
2023-02-04T12:33:32.811Z,76.45
2023-02-04T12:35:34.187Z,72.89
2023-02-04T12:37:35.579Z,73.29
2023-02-04T12:39:36.663Z,74.9
2023-02-04T12:41:37.910Z,73.42
2023-02-04T12:43:39.075Z,70.32
2023-02-04T12:45:40.888Z,70.11
2023-02-04T12:49:43.590Z,71.81
2023-02-04T12:51:45.443Z,72.27
2023-02-04T12:53:46.985Z,69.88
2023-02-04T12:55:48.641Z,70.01
2023-02-04T12:59:51.180Z,70.87
2023-02-04T13:01:52.097Z,72.88
2023-02-04T13:05:54.470Z,69.89
2023-02-04T13:07:55.742Z,71.29
2023-02-04T13:09:56.770Z,69.64
2023-02-04T13:11:58.527Z,68.65
2023-02-04T13:16:01.538Z,71.64
2023-02-04T13:18:02.921Z,70.05
2023-02-04T13:20:04.542Z,73
2023-02-04T13:22:05.523Z,72.55
2023-02-04T13:24:06.807Z,70.74
2023-02-04T13:26:08.317Z,70.91
2023-02-04T13:28:10.096Z,71.51
2023-02-04T13:30:11.135Z,71.18
2023-02-04T13:32:12.372Z,71.86
2023-02-04T13:34:13.618Z,72.77
2023-02-04T13:36:15.191Z,74.58
2023-02-04T13:38:16.364Z,73.73
2023-02-04T13:40:18.269Z,73.62
2023-02-04T13:42:19.939Z,73.62
2023-02-04T13:44:21.421Z,74.1
2023-02-04T13:48:23.377Z,72.91
2023-02-04T13:50:24.992Z,75.25
2023-02-04T13:52:26.495Z,73.2
2023-02-04T13:54:28.124Z,72.61
2023-02-04T13:58:30.867Z,74.94
2023-02-04T14:00:32.651Z,74.47
2023-02-04T14:02:34.172Z,73.84
2023-02-04T14:04:36.917Z,73.79
2023-02-04T14:06:37.154Z,74
2023-02-04T14:08:38.556Z,73.96
2023-02-04T14:10:39.664Z,74.25
2023-02-04T14:12:41.237Z,75.5
2023-02-04T14:14:43.171Z,73.25
2023-02-04T14:16:44.845Z,73.98
2023-02-04T14:18:46.219Z,74.38
2023-02-04T14:20:47.798Z,74.41
2023-02-04T14:22:48.939Z,76.12
2023-02-04T14:24:50.317Z,74.78
2023-02-04T14:26:51.783Z,74.01
2023-02-04T14:28:53.117Z,74.47
2023-02-04T14:30:54.877Z,75.62
2023-02-04T14:32:55.974Z,74.97
2023-02-04T14:34:57.736Z,73.53
2023-02-04T14:36:58.748Z,73.14
2023-02-04T14:41:00.834Z,72.87
2023-02-04T14:43:01.830Z,73.98
2023-02-04T14:45:03.142Z,72.19
2023-02-04T14:45:46.997Z,72.97
2023-02-04T14:47:48.803Z,73.8
2023-02-04T14:49:50.347Z,72.56
2023-02-04T14:51:51.607Z,72.48
2023-02-04T14:53:52.928Z,72.45
2023-02-04T14:55:53.950Z,71.73
2023-02-04T14:57:55.890Z,72.57
2023-02-04T14:59:57.744Z,72.83
2023-02-04T15:01:58.762Z,72.88
2023-02-04T15:04:00.491Z,74.88
2023-02-04T15:08:03.206Z,73.34
2023-02-04T15:10:04.671Z,73.42
2023-02-04T15:12:06.191Z,73.85
2023-02-04T15:14:07.266Z,74.69
2023-02-04T15:18:10.102Z,73.75
2023-02-04T15:20:11.778Z,72.52
2023-02-04T15:22:13.445Z,72.59
2023-02-04T15:24:14.745Z,75.24
2023-02-04T15:26:15.989Z,73.77
2023-02-04T15:28:17.553Z,72.42
2023-02-04T15:30:18.495Z,73.69
2023-02-04T15:32:19.819Z,72.45
2023-02-04T15:34:21.663Z,72.86
2023-02-04T15:36:22.564Z,73.5
2023-02-04T15:38:24.501Z,73.25
2023-02-04T15:40:25.719Z,72.85
2023-02-04T15:42:26.840Z,71.61
2023-02-04T15:44:28.504Z,74.13
2023-02-04T15:46:30.274Z,72.61
2023-02-04T15:48:31.323Z,73.39
2023-02-04T15:50:33.304Z,73.45
2023-02-04T15:52:34.322Z,74.54
2023-02-04T15:54:35.916Z,73.33
2023-02-04T15:56:37.020Z,75.21
2023-02-04T15:58:38.182Z,74.83
2023-02-04T16:00:39.254Z,76.03
2023-02-04T16:02:40.515Z,76.53
2023-02-04T16:06:53.443Z,76.53
2023-02-04T16:08:45.205Z,78.03
2023-02-04T16:10:46.637Z,77.54
2023-02-04T16:12:48.186Z,78.67
2023-02-04T16:16:51.545Z,78.17
2023-02-04T16:18:52.722Z,77.44
2023-02-04T16:20:53.998Z,78.29
2023-02-04T16:22:55.853Z,78.13
2023-02-04T16:24:57.400Z,78.06
2023-02-04T16:26:58.754Z,78.45
2023-02-04T16:28:59.932Z,78.55
2023-02-04T16:31:01.280Z,78.97
2023-02-04T16:33:03.990Z,78.07
2023-02-04T16:39:06.737Z,78.45
2023-02-04T16:41:08.202Z,78.32
2023-02-04T16:43:09.705Z,79.04
2023-02-04T16:45:11.055Z,79.41
2023-02-04T16:47:12.808Z,79.39
2023-02-04T16:49:14.496Z,79.43
2023-02-04T16:51:15.551Z,79.78
2023-02-04T16:53:16.907Z,80.04
2023-02-04T16:55:18.507Z,79.98
2023-02-04T16:59:21.125Z,80.48
2023-02-04T17:01:22.761Z,81.24
2023-02-04T17:03:24.068Z,81.72
2023-02-04T17:05:25.799Z,81.68
2023-02-04T17:07:27.203Z,81.79
2023-02-04T17:09:28.503Z,81.28
2023-02-04T17:11:29.757Z,81.48
2023-02-04T17:13:31.071Z,81.75
2023-02-04T17:15:33.005Z,82.32
2023-02-04T17:17:34.563Z,81.82
2023-02-04T17:19:36.293Z,81.24
2023-02-04T17:21:38.318Z,81.84
2023-02-04T17:23:40.058Z,81.95
2023-02-04T17:25:41.310Z,82.95
2023-02-04T17:27:43.345Z,82.85
2023-02-04T17:29:44.915Z,82.75
2023-02-04T17:31:46.721Z,82.64
2023-02-04T17:33:48.495Z,82.32
2023-02-04T17:35:49.865Z,82.31
2023-02-04T17:37:51.364Z,82.3
2023-02-04T17:41:53.771Z,81.89
2023-02-04T17:43:54.797Z,82.25
2023-02-04T17:45:56.368Z,82.42
2023-02-04T17:47:58.319Z,82.72
2023-02-04T17:50:00.267Z,82.92
2023-02-04T17:52:01.348Z,83.47
2023-02-04T17:54:02.803Z,83.4
2023-02-04T17:56:04.748Z,83.53
2023-02-04T17:58:06.211Z,83.89
2023-02-04T18:00:07.912Z,84.64
2023-02-04T18:02:09.650Z,84.79
2023-02-04T18:04:11.374Z,84.66
2023-02-04T18:06:14.143Z,84.79
2023-02-04T18:08:14.603Z,84.89
2023-02-04T18:10:15.787Z,84.84
2023-02-04T18:14:18.538Z,84.74
2023-02-04T18:16:20.364Z,84.64
2023-02-04T18:18:21.868Z,84.62
2023-02-04T18:20:23.589Z,85.3
2023-02-04T18:24:27.345Z,86.06
2023-02-04T18:26:28.755Z,86.85
2023-02-04T18:28:30.296Z,87.34
2023-02-04T18:30:32.282Z,87.45
2023-02-04T18:32:33.401Z,87.85
2023-02-04T18:34:35.029Z,87.64
2023-02-04T18:36:36.583Z,87.57
2023-02-04T18:38:37.898Z,87.71
2023-02-04T18:40:41.474Z,87.84
2023-02-04T18:42:41.302Z,88.08
2023-02-04T18:44:43.099Z,88.27
2023-02-04T18:46:44.466Z,88.31
2023-02-04T18:48:46.084Z,88.36
2023-02-04T18:50:47.530Z,88.21
2023-02-04T18:52:48.759Z,87.59
2023-02-04T18:56:52.021Z,86.9
2023-02-04T18:58:54.035Z,86.78
2023-02-04T19:00:55.965Z,86.74
2023-02-04T19:02:57.411Z,86.89
2023-02-04T19:07:01.052Z,86.99
2023-02-04T19:09:02.797Z,87.01
2023-02-04T19:11:04.329Z,87.71
2023-02-04T19:13:06.062Z,88.5
2023-02-04T19:15:07.525Z,88.94
2023-02-04T19:17:09.155Z,88.88
2023-02-04T19:19:10.436Z,88.77
2023-02-04T19:21:12.065Z,88.35
2023-02-04T19:23:14.129Z,88.35
2023-02-04T19:25:15.638Z,88.47
2023-02-04T19:27:16.658Z,88.14
2023-02-04T19:29:18.269Z,87.97
2023-02-04T19:31:19.432Z,87.87
2023-02-04T19:33:21.178Z,88.19
2023-02-04T19:35:22.814Z,88.58
2023-02-04T19:37:24.829Z,89.39
2023-02-04T19:39:26.575Z,89.64
2023-02-04T19:41:27.975Z,89.87
2023-02-04T19:43:29.633Z,90.27
2023-02-04T19:45:31.135Z,90.26
2023-02-04T19:49:34.206Z,90.69
2023-02-04T19:51:35.344Z,90.95
2023-02-04T19:55:38.541Z,90.67
2023-02-04T19:57:39.741Z,90.55
2023-02-04T19:59:41.552Z,90.68
2023-02-04T20:01:43.074Z,90.63
2023-02-04T20:05:46.188Z,90.89
2023-02-04T20:07:47.834Z,91.53
2023-02-04T20:09:49.444Z,92.06
2023-02-04T20:11:51.322Z,92.45
2023-02-04T20:13:52.622Z,92.51
2023-02-04T20:15:54.697Z,92.09
2023-02-04T20:17:56.626Z,92.05
2023-02-04T20:19:58.265Z,91.99
2023-02-04T20:22:00.337Z,91.99
2023-02-04T20:24:02.107Z,91.85
2023-02-04T20:26:03.297Z,91.88
2023-02-04T20:28:05.231Z,92.08
2023-02-04T20:32:08.444Z,92.74
2023-02-04T20:34:10.125Z,91.98
2023-02-04T20:36:11.818Z,92.16
2023-02-04T20:38:13.263Z,92
2023-02-04T20:40:14.849Z,91.82
2023-02-04T20:42:16.275Z,91.84
2023-02-04T20:44:18.248Z,91.89
2023-02-04T20:46:19.723Z,91.58
2023-02-04T20:48:21.347Z,91.6
2023-02-04T20:50:22.481Z,91.33
2023-02-04T20:52:24.322Z,91.32
2023-02-04T20:54:25.701Z,91.58
2023-02-04T20:56:26.906Z,92.08
2023-02-04T20:58:29.051Z,92.69
2023-02-04T21:00:30.676Z,92.96
2023-02-04T21:02:31.763Z,93.18
2023-02-04T21:04:33.337Z,93.22
2023-02-04T21:06:34.985Z,92.99
2023-02-04T21:08:36.927Z,92.9
2023-02-04T21:10:38.438Z,92.94
2023-02-04T21:14:41.634Z,93.67
2023-02-04T21:16:43.363Z,93.66
2023-02-04T21:20:46.282Z,94.14
2023-02-04T21:22:48.243Z,94.49
2023-02-04T21:24:49.591Z,94.61
2023-02-04T21:26:51.540Z,94.8
2023-02-04T21:28:53.401Z,94.94
2023-02-04T21:30:55.192Z,95.06
2023-02-04T21:31:39.226Z,95.1
2023-02-04T21:33:40.549Z,95.14
2023-02-04T21:35:42.280Z,95.27
2023-02-04T21:37:43.897Z,95.25
2023-02-04T21:39:45.636Z,95.26
2023-02-04T21:41:47.412Z,95.24
2023-02-04T21:43:48.602Z,95.22
2023-02-04T21:45:49.843Z,95.16
2023-02-04T21:47:51.754Z,95.39
2023-02-04T21:49:53.251Z,95.67
2023-02-04T21:51:54.944Z,95.31
2023-02-04T21:53:56.724Z,95.15
2023-02-04T21:58:00.070Z,95.2
2023-02-04T22:00:01.371Z,95.42
2023-02-04T22:02:03.164Z,95.53
2023-02-04T22:04:04.899Z,95.37
2023-02-04T22:08:07.466Z,95.35
2023-02-04T22:10:09.469Z,95.54
2023-02-04T22:12:10.809Z,95.77
2023-02-04T22:14:12.399Z,95.34
2023-02-04T22:16:14.438Z,95.19
2023-02-04T22:18:15.545Z,94.9
2023-02-04T22:20:17.469Z,95.09
2023-02-04T22:22:18.873Z,94.79
2023-02-04T22:24:20.476Z,94.62
2023-02-04T22:26:22.502Z,94.63
2023-02-04T22:28:23.970Z,94.56
2023-02-04T22:30:25.648Z,94.49
2023-02-04T22:32:27.245Z,94.67
2023-02-04T22:34:28.931Z,94.65
2023-02-04T22:36:30.116Z,94.69
2023-02-04T22:40:33.089Z,94.71
2023-02-04T22:42:42.561Z,94.69
2023-02-04T22:44:36.444Z,94.7
2023-02-04T22:46:38.249Z,94.82
2023-02-04T22:50:41.633Z,95.13
2023-02-04T22:52:43.941Z,95.06
2023-02-04T22:54:45.534Z,95.02
2023-02-04T22:56:47.126Z,95.08
2023-02-04T22:58:48.474Z,95.03
2023-02-04T23:00:50.588Z,95.07
2023-02-04T23:02:52.335Z,95.23
2023-02-04T23:04:53.985Z,95.3
2023-02-04T23:06:55.982Z,95.52
2023-02-04T23:08:57.582Z,95.45
2023-02-04T23:10:58.649Z,95.55
2023-02-04T23:12:59.957Z,95.68
2023-02-04T23:15:01.481Z,95.88
2023-02-04T23:17:03.514Z,95.97
2023-02-04T23:19:04.877Z,96.07
2023-02-04T23:21:06.702Z,96.06
2023-02-04T23:23:08.228Z,96.16
2023-02-04T23:25:09.715Z,96.06
2023-02-04T23:27:11.523Z,96.17
2023-02-04T23:29:12.927Z,96.16
2023-02-04T23:33:16.377Z,96.24
2023-02-04T23:35:17.917Z,96.25
2023-02-04T23:37:19.525Z,96.19
2023-02-04T23:39:20.722Z,96.12
2023-02-04T23:41:22.779Z,96.23
2023-02-04T23:43:23.888Z,96.24
2023-02-04T23:45:25.470Z,96.32
2023-02-04T23:47:26.603Z,96.38
2023-02-04T23:49:28.245Z,96.57
2023-02-04T23:51:29.880Z,96.54
2023-02-04T23:53:31.791Z,96.48
2023-02-04T23:55:33.773Z,96.46
2023-02-04T23:57:35.497Z,96.53
2023-02-04T23:59:37.335Z,96.46
